Alessandro F — IBVQ — position and weather

sailwx.info

Track history (hours):
 
Tides and Currents Weather Stations Pressure Air Temp Water Temp Dewpoint Dewpoint Depression Visibility Wind Speed Wind Dir Waves Ship Positions

Alessandro F

Last reported at 2016-Dec-05 20:33 UTC. Time now 2016-Dec-05 20:41 UTC.
Position N 43°31' E 010°17'.

Length 100 m; draft 5.1 m.

Type: Ship. MMSI: 247046400.

Date/timePositionNaut miles runAvg speedWind from/ knotsBaromVisibWave heightAir tempDewpointWater temp
2016-Dec-05 20:33N 43°31' E 010°17'0 0.0
2016-Dec-05 19:33N 43°31' E 010°17'0 0.0
2016-Dec-05 18:33N 43°31' E 010°17'0 0.0
2016-Dec-05 17:33N 43°31' E 010°17'0 0.0
2016-Dec-05 16:33N 43°31' E 010°17'0 0.0
2016-Dec-05 15:33N 43°31' E 010°17'0 0.0
2016-Dec-05 14:33N 43°31' E 010°17'0 0.0
2016-Dec-05 09:33N 43°31' E 010°17'0 0.0
2016-Dec-05 08:33N 43°31' E 010°17'0 0.0
2016-Dec-05 07:33N 43°31' E 010°17'0 0.0
2016-Dec-05 06:33N 43°31' E 010°17'0 0.0
2016-Dec-05 05:30N 43°31' E 010°17'0 0.0
2016-Dec-05 04:33N 43°31' E 010°17'0 0.0
2016-Dec-05 03:33N 43°31' E 010°17'0 0.0
2016-Dec-05 02:33N 43°31' E 010°17'0 0.0
2016-Dec-05 01:33N 43°31' E 010°17'0 0.0
2016-Dec-05 00:30N 43°31' E 010°17'0 0.0
2016-Dec-04 23:33N 43°31' E 010°17'0 0.0
2016-Dec-04 22:33N 43°31' E 010°17'0 0.0
2016-Dec-04 21:24N 43°31' E 010°17'0 0.0
2016-Dec-04 20:33N 43°31' E 010°17'0 0.0
2016-Dec-04 19:33N 43°31' E 010°17'0 0.0
2016-Dec-04 18:30N 43°31' E 010°17'0 0.0
2016-Dec-04 17:33N 43°31' E 010°17'0 0.0
2016-Dec-04 16:30N 43°31' E 010°17'0 0.0
2016-Dec-04 15:33N 43°31' E 010°17'0 0.0
2016-Dec-04 14:33N 43°31' E 010°17'0 0.0
2016-Dec-04 13:33N 43°31' E 010°17'0 0.0
2016-Dec-04 12:30N 43°31' E 010°17'0 0.0
2016-Dec-04 11:30N 43°31' E 010°17'0 0.0
2016-Dec-04 10:33N 43°31' E 010°17'0 0.0
2016-Dec-04 09:33N 43°31' E 010°17'0 0.0
2016-Dec-04 08:30N 43°31' E 010°17'0 0.0
2016-Dec-04 07:33N 43°31' E 010°17'0 0.0
2016-Dec-04 06:33N 43°31' E 010°17'0 0.0
2016-Dec-04 05:33N 43°31' E 010°17'0 0.0
2016-Dec-04 04:33N 43°31' E 010°17'0 0.0
2016-Dec-04 03:33N 43°31' E 010°17'0 0.0
2016-Dec-04 02:33N 43°31' E 010°17'0 0.0
2016-Dec-04 01:33N 43°31' E 010°17'4 3.9
2016-Dec-04 00:33N 43°34' E 010°19'1 0.6
2016-Dec-03 23:32N 43°35' E 010°19'0 0.0
2016-Dec-03 22:32N 43°35' E 010°19'0 0.0
2016-Dec-03 21:26N 43°35' E 010°19'0 0.0
2016-Dec-03 20:32N 43°35' E 010°19'0 0.0
2016-Dec-03 19:32N 43°35' E 010°19'0 0.0
2016-Dec-03 18:32N 43°35' E 010°19'0 0.0
2016-Dec-03 14:14N 43°35' E 010°19'0 0.0
2016-Dec-03 13:26N 43°35' E 010°19'0 0.0
2016-Dec-03 12:32N 43°35' E 010°19'0 0.0
2016-Dec-03 11:29N 43°35' E 010°19'0 0.0
2016-Dec-03 10:23N 43°35' E 010°19'0 0.0
2016-Dec-03 09:29N 43°35' E 010°19'0 0.0
2016-Dec-03 08:26N 43°35' E 010°19'3 3.3
2016-Dec-03 07:33N 43°32' E 010°17'9 9.3
2016-Dec-03 06:33N 43°24' E 010°11'1313.2
2016-Dec-03 05:33N 43°11' E 010°07'3511.7
2016-Dec-03 02:31N 42°36' E 010°14'32313.4
2016-Dec-02 02:29N 38°52' E 015°21'1213.5
2016-Dec-02 01:33N 38°41' E 015°28'1413.9
2016-Dec-02 00:33N 38°28' E 015°36'1313.0
2016-Dec-01 23:34N 38°16' E 015°42'1212.1
2016-Dec-01 22:33N 38°05' E 015°36'1413.5
2016-Dec-01 21:31N 37°51' E 015°31'  
2016-Nov-28 22:15N 36°39' E 014°38'913.5
2016-Nov-28 21:33N 36°41' E 014°27'1313.3
2016-Nov-28 20:34N 36°40' E 014°11'11 9.7
2016-Nov-28 19:28N 36°43' E 013°58'1112.0
2016-Nov-28 18:34N 36°53' E 013°51'  
2016-Nov-26 14:16N 37°29' W 000°41'1214.4
2016-Nov-26 13:27N 37°30' W 000°55'  
Track history (hours):
 
Tides and Currents Weather Stations Pressure Air Temp Water Temp Dewpoint Dewpoint Depression Visibility Wind Speed Wind Dir Waves Ship Positions

Alessandro F

Last reported at 2016-Dec-05 20:33 UTC. Time now 2016-Dec-05 20:41 UTC.
Position N 43°31' E 010°17'.

Length 100 m; draft 5.1 m.

Type: Ship. MMSI: 247046400.

Date/timePositionNaut miles runAvg speedWind from/ knotsBaromVisibWave heightAir tempDewpointWater temp
2016-Dec-05 20:33N 43°31' E 010°17'0 0.0
2016-Dec-05 19:33N 43°31' E 010°17'0 0.0
2016-Dec-05 18:33N 43°31' E 010°17'0 0.0
2016-Dec-05 17:33N 43°31' E 010°17'0 0.0
2016-Dec-05 16:33N 43°31' E 010°17'0 0.0
2016-Dec-05 15:33N 43°31' E 010°17'0 0.0
2016-Dec-05 14:33N 43°31' E 010°17'0 0.0
2016-Dec-05 09:33N 43°31' E 010°17'0 0.0
2016-Dec-05 08:33N 43°31' E 010°17'0 0.0
2016-Dec-05 07:33N 43°31' E 010°17'0 0.0
2016-Dec-05 06:33N 43°31' E 010°17'0 0.0
2016-Dec-05 05:30N 43°31' E 010°17'0 0.0
2016-Dec-05 04:33N 43°31' E 010°17'0 0.0
2016-Dec-05 03:33N 43°31' E 010°17'0 0.0
2016-Dec-05 02:33N 43°31' E 010°17'0 0.0
2016-Dec-05 01:33N 43°31' E 010°17'0 0.0
2016-Dec-05 00:30N 43°31' E 010°17'0 0.0
2016-Dec-04 23:33N 43°31' E 010°17'0 0.0
2016-Dec-04 22:33N 43°31' E 010°17'0 0.0
2016-Dec-04 21:24N 43°31' E 010°17'0 0.0
2016-Dec-04 20:33N 43°31' E 010°17'0 0.0
2016-Dec-04 19:33N 43°31' E 010°17'0 0.0
2016-Dec-04 18:30N 43°31' E 010°17'0 0.0
2016-Dec-04 17:33N 43°31' E 010°17'0 0.0
2016-Dec-04 16:30N 43°31' E 010°17'0 0.0
2016-Dec-04 15:33N 43°31' E 010°17'0 0.0
2016-Dec-04 14:33N 43°31' E 010°17'0 0.0
2016-Dec-04 13:33N 43°31' E 010°17'0 0.0
2016-Dec-04 12:30N 43°31' E 010°17'0 0.0
2016-Dec-04 11:30N 43°31' E 010°17'0 0.0
2016-Dec-04 10:33N 43°31' E 010°17'0 0.0
2016-Dec-04 09:33N 43°31' E 010°17'0 0.0
2016-Dec-04 08:30N 43°31' E 010°17'0 0.0
2016-Dec-04 07:33N 43°31' E 010°17'0 0.0
2016-Dec-04 06:33N 43°31' E 010°17'0 0.0
2016-Dec-04 05:33N 43°31' E 010°17'0 0.0
2016-Dec-04 04:33N 43°31' E 010°17'0 0.0
2016-Dec-04 03:33N 43°31' E 010°17'0 0.0
2016-Dec-04 02:33N 43°31' E 010°17'0 0.0
2016-Dec-04 01:33N 43°31' E 010°17'4 3.9
2016-Dec-04 00:33N 43°34' E 010°19'1 0.6
2016-Dec-03 23:32N 43°35' E 010°19'0 0.0
2016-Dec-03 22:32N 43°35' E 010°19'0 0.0
2016-Dec-03 21:26N 43°35' E 010°19'0 0.0
2016-Dec-03 20:32N 43°35' E 010°19'0 0.0
2016-Dec-03 19:32N 43°35' E 010°19'0 0.0
2016-Dec-03 18:32N 43°35' E 010°19'0 0.0
2016-Dec-03 14:14N 43°35' E 010°19'0 0.0
2016-Dec-03 13:26N 43°35' E 010°19'0 0.0
2016-Dec-03 12:32N 43°35' E 010°19'0 0.0
2016-Dec-03 11:29N 43°35' E 010°19'0 0.0
2016-Dec-03 10:23N 43°35' E 010°19'0 0.0
2016-Dec-03 09:29N 43°35' E 010°19'0 0.0
2016-Dec-03 08:26N 43°35' E 010°19'3 3.3
2016-Dec-03 07:33N 43°32' E 010°17'9 9.3
2016-Dec-03 06:33N 43°24' E 010°11'1313.2
2016-Dec-03 05:33N 43°11' E 010°07'3511.7
2016-Dec-03 02:31N 42°36' E 010°14'32313.4
2016-Dec-02 02:29N 38°52' E 015°21'1213.5
2016-Dec-02 01:33N 38°41' E 015°28'1413.9
2016-Dec-02 00:33N 38°28' E 015°36'1313.0
2016-Dec-01 23:34N 38°16' E 015°42'1212.1
2016-Dec-01 22:33N 38°05' E 015°36'1413.5
2016-Dec-01 21:31N 37°51' E 015°31'  
2016-Nov-28 22:15N 36°39' E 014°38'913.5
2016-Nov-28 21:33N 36°41' E 014°27'1313.3
2016-Nov-28 20:34N 36°40' E 014°11'11 9.7
2016-Nov-28 19:28N 36°43' E 013°58'1112.0
2016-Nov-28 18:34N 36°53' E 013°51'  
2016-Nov-26 14:16N 37°29' W 000°41'1214.4
2016-Nov-26 13:27N 37°30' W 000°55'  

Dump ship's entire track history